Time,TemperatureF,DewpointF,PressureIn,WindDirection,WindDirectionDegrees,WindSpeedMPH,WindSpeedGustMPH,Humidity,HourlyPrecipIn,Conditions,Clouds,dailyrainin,SolarRadiationWatts/m^2,SoftwareType,DateUTC
2013-10-07 00:00:00,53.0,51.3,23.18,East,80,0.0,0.0,94,0.00,,,0.24,0,Wunderground v.1.15,2013-10-07 04:00:00,
2013-10-07 00:10:00,53.1,51.4,23.18,East,80,0.0,0.0,94,0.00,,,0.00,0,Wunderground v.1.15,2013-10-07 04:10:00,
2013-10-07 00:20:00,53.1,51.4,23.18,East,79,0.0,0.0,94,0.00,,,0.00,0,Wunderground v.1.15,2013-10-07 04:20:00,
2013-10-07 00:40:00,53.7,52.3,23.18,East,80,0.0,0.0,95,0.00,,,0.00,0,Wunderground v.1.15,2013-10-07 04:40:00,
2013-10-07 00:50:00,54.0,52.6,23.18,East,80,0.0,0.0,95,0.00,,,0.00,0,Wunderground v.1.15,2013-10-07 04:50:00,
2013-10-07 01:10:00,55.6,54.2,23.18,ESE,106,0.0,0.0,95,0.00,,,0.00,0,Wunderground v.1.15,2013-10-07 05:10:00,
2013-10-07 01:40:00,55.9,54.5,23.17,ESE,107,0.0,0.0,95,0.00,,,0.00,0,Wunderground v.1.15,2013-10-07 05:40:00,
2013-10-07 01:50:00,56.2,54.8,23.17,ESE,107,0.0,0.0,95,0.00,,,0.00,0,Wunderground v.1.15,2013-10-07 05:50:00,
2013-10-07 02:10:00,56.4,54.7,23.17,ESE,109,0.0,0.0,94,0.00,,,0.00,0,Wunderground v.1.15,2013-10-07 06:10:00,
2013-10-07 02:19:00,55.2,53.2,23.17,ESE,108,0.0,0.0,93,0.00,,,0.00,0,Wunderground v.1.15,2013-10-07 06:19:00,
2013-10-07 02:40:00,54.1,52.1,23.17,ESE,109,0.0,0.0,93,0.00,,,0.00,0,Wunderground v.1.15,2013-10-07 06:40:00,
2013-10-07 02:50:00,53.7,51.7,23.17,ESE,109,0.0,0.0,93,0.00,,,0.00,0,Wunderground v.1.15,2013-10-07 06:50:00,
2013-10-07 03:10:00,52.5,50.5,23.17,ESE,109,0.0,0.0,93,0.00,,,0.00,0,Wunderground v.1.15,2013-10-07 07:10:00,
2013-10-07 03:20:00,52.4,50.7,23.17,ESE,109,0.0,0.0,94,0.00,,,0.00,0,Wunderground v.1.15,2013-10-07 07:20:00,
2013-10-07 03:40:00,52.7,51.0,23.17,ESE,109,0.0,0.0,94,0.00,,,0.00,0,Wunderground v.1.15,2013-10-07 07:40:00,
2013-10-07 03:50:00,52.8,51.1,23.17,ESE,109,0.0,0.0,94,0.00,,,0.00,0,Wunderground v.1.15,2013-10-07 07:50:00,
2013-10-07 04:00:00,52.7,51.0,23.17,ESE,109,0.0,0.0,94,0.00,,,0.00,0,Wunderground v.1.15,2013-10-07 08:00:00,
2013-10-07 04:10:00,53.1,51.4,23.17,ESE,109,0.0,0.0,94,0.00,,,0.00,0,Wunderground v.1.15,2013-10-07 08:10:00,
2013-10-07 04:20:00,53.7,52.0,23.16,ESE,109,0.0,0.0,94,0.00,,,0.00,0,Wunderground v.1.15,2013-10-07 08:20:00,
2013-10-07 04:40:00,52.7,51.0,23.16,ESE,109,0.0,0.0,94,0.00,,,0.00,0,Wunderground v.1.15,2013-10-07 08:40:00,
2013-10-07 04:50:00,53.1,51.4,23.16,ESE,109,0.0,0.0,94,0.00,,,0.00,0,Wunderground v.1.15,2013-10-07 08:50:00,
2013-10-07 05:00:00,53.5,52.1,23.16,ESE,109,0.0,0.0,95,0.00,,,0.00,0,Wunderground v.1.15,2013-10-07 09:00:00,
2013-10-07 05:10:00,54.4,53.0,23.16,ESE,109,0.0,0.0,95,0.00,,,0.00,0,Wunderground v.1.15,2013-10-07 09:10:00,
2013-10-07 05:20:00,56.6,55.2,23.16,SSE,148,0.0,0.0,95,0.00,,,0.00,0,Wunderground v.1.15,2013-10-07 09:20:00,
2013-10-07 05:40:00,57.5,56.1,23.16,South,175,0.0,0.0,95,0.00,,,0.00,0,Wunderground v.1.15,2013-10-07 09:40:00,
2013-10-07 05:50:00,57.7,56.0,23.16,SSE,160,0.0,0.0,94,0.00,,,0.00,0,Wunderground v.1.15,2013-10-07 09:50:00,
2013-10-07 06:10:00,58.2,56.2,23.16,South,172,0.0,0.0,93,0.00,,,0.00,0,Wunderground v.1.15,2013-10-07 10:10:00,
2013-10-07 06:20:00,58.8,56.8,23.16,South,169,0.0,0.0,93,0.00,,,0.00,0,Wunderground v.1.15,2013-10-07 10:20:00,
2013-10-07 06:30:00,59.1,56.5,23.16,South,190,0.0,0.0,91,0.00,,,0.00,0,Wunderground v.1.15,2013-10-07 10:30:00,
2013-10-07 06:40:00,59.2,56.0,23.16,South,182,0.0,0.0,89,0.00,,,0.00,0,Wunderground v.1.15,2013-10-07 10:40:00,
2013-10-07 06:50:00,59.4,55.8,23.16,South,182,0.0,0.0,88,0.00,,,0.00,0,Wunderground v.1.15,2013-10-07 10:50:00,
2013-10-07 07:10:00,59.5,55.9,23.16,SSW,213,0.0,0.0,88,0.00,,,0.00,5,Wunderground v.1.15,2013-10-07 11:10:00,
2013-10-07 07:20:00,59.8,55.9,23.15,SSE,165,0.0,0.0,87,0.00,,,0.00,11,Wunderground v.1.15,2013-10-07 11:20:00,
2013-10-07 07:40:00,60.6,56.4,23.15,SE,142,0.0,0.0,86,0.00,,,0.00,40,Wunderground v.1.15,2013-10-07 11:40:00,
2013-10-07 07:50:00,60.9,56.7,23.15,South,182,0.0,0.0,86,0.00,,,0.00,62,Wunderground v.1.15,2013-10-07 11:50:00,
2013-10-07 08:10:00,62.2,57.3,23.15,SSE,163,0.0,0.0,84,0.00,,,0.00,301,Wunderground v.1.15,2013-10-07 12:10:00,
2013-10-07 08:20:00,62.8,57.6,23.15,SW,228,0.0,0.0,83,0.00,,,0.00,165,Wunderground v.1.15,2013-10-07 12:20:00,
2013-10-07 08:30:00,63.1,57.5,23.15,SSW,213,0.0,0.0,82,0.00,,,0.00,84,Wunderground v.1.15,2013-10-07 12:30:00,
2013-10-07 08:40:00,63.0,57.4,23.15,South,169,0.0,0.0,82,0.00,,,0.01,77,Wunderground v.1.15,2013-10-07 12:40:00,
2013-10-07 08:49:00,63.0,57.4,23.15,SSW,204,0.0,0.0,82,0.00,,,0.01,70,Wunderground v.1.15,2013-10-07 12:49:00,
2013-10-07 09:10:00,63.4,57.5,23.15,SSW,211,0.0,0.0,81,0.00,,,0.01,93,Wunderground v.1.15,2013-10-07 13:10:00,
2013-10-07 09:20:00,63.9,57.6,23.14,South,184,0.0,0.0,80,0.00,,,0.01,97,Wunderground v.1.15,2013-10-07 13:20:00,
2013-10-07 09:40:00,65.1,58.1,23.14,South,180,0.0,0.0,78,0.00,,,0.01,214,Wunderground v.1.15,2013-10-07 13:40:00,
2013-10-07 09:50:00,65.9,58.1,23.14,SSW,196,0.0,0.0,76,0.00,,,0.01,236,Wunderground v.1.15,2013-10-07 13:50:00,
2013-10-07 10:00:00,66.2,58.0,23.14,South,180,0.0,0.0,75,0.00,,,0.01,141,Wunderground v.1.15,2013-10-07 14:00:00,
2013-10-07 10:10:00,66.2,58.0,23.14,South,183,0.0,0.0,75,0.00,,,0.01,118,Wunderground v.1.15,2013-10-07 14:10:00,
2013-10-07 10:20:00,66.3,58.1,23.14,South,171,0.0,0.0,75,0.00,,,0.01,127,Wunderground v.1.15,2013-10-07 14:20:00,
2013-10-07 10:40:00,68.3,58.9,23.13,South,180,0.0,0.0,72,0.00,,,0.01,622,Wunderground v.1.15,2013-10-07 14:40:00,
2013-10-07 10:50:00,69.5,58.9,23.13,SSE,164,0.0,0.0,69,0.00,,,0.01,315,Wunderground v.1.15,2013-10-07 14:50:00,
2013-10-07 11:10:00,70.5,59.0,23.13,SSW,200,0.0,0.0,67,0.00,,,0.01,327,Wunderground v.1.15,2013-10-07 15:10:00,
2013-10-07 11:20:00,71.4,59.4,23.13,SSW,200,0.0,0.0,66,0.00,,,0.01,473,Wunderground v.1.15,2013-10-07 15:20:00,
2013-10-07 11:40:00,72.9,60.0,23.12,SSE,166,0.0,0.0,64,0.00,,,0.01,323,Wunderground v.1.15,2013-10-07 15:40:00,
2013-10-07 11:49:00,72.0,59.6,23.12,South,178,0.0,0.0,65,0.00,,,0.01,425,Wunderground v.1.15,2013-10-07 15:49:00,
2013-10-07 12:09:00,73.6,59.3,23.12,South,180,0.0,0.0,61,0.00,,,0.01,552,Wunderground v.1.15,2013-10-07 16:09:00,
2013-10-07 12:20:00,73.8,59.5,23.11,South,190,0.0,0.0,61,0.00,,,0.01,410,Wunderground v.1.15,2013-10-07 16:20:00,
2013-10-07 12:30:00,74.1,59.3,23.11,South,185,0.0,0.0,60,0.00,,,0.01,339,Wunderground v.1.15,2013-10-07 16:30:00,
2013-10-07 12:40:00,73.6,59.3,23.11,SSE,167,0.0,0.0,61,0.00,,,0.01,297,Wunderground v.1.15,2013-10-07 16:40:00,
2013-10-07 12:49:00,73.6,59.8,23.11,SSW,192,0.0,0.0,62,0.00,,,0.01,369,Wunderground v.1.15,2013-10-07 16:49:00,
2013-10-07 13:10:00,75.0,59.2,23.11,South,171,0.0,0.0,58,0.00,,,0.01,294,Wunderground v.1.15,2013-10-07 17:10:00,
2013-10-07 13:20:00,74.1,59.3,23.10,South,173,0.0,0.0,60,0.00,,,0.01,123,Wunderground v.1.15,2013-10-07 17:20:00,
2013-10-07 13:40:00,72.7,59.4,23.10,South,174,0.0,0.0,63,0.00,,,0.01,97,Wunderground v.1.15,2013-10-07 17:40:00,
2013-10-07 13:50:00,72.9,59.6,23.10,SW,225,0.0,0.0,63,0.00,,,0.01,162,Wunderground v.1.15,2013-10-07 17:50:00,
2013-10-07 14:00:00,72.9,60.0,23.10,SSW,194,0.0,0.0,64,0.00,,,0.01,130,Wunderground v.1.15,2013-10-07 18:00:00,
2013-10-07 14:10:00,72.7,59.8,23.09,South,182,0.0,0.0,64,0.00,,,0.01,128,Wunderground v.1.15,2013-10-07 18:10:00,
2013-10-07 14:20:00,72.6,60.6,23.09,South,190,0.0,0.0,66,0.00,,,0.01,53,Wunderground v.1.15,2013-10-07 18:20:00,
2013-10-07 14:30:00,68.0,60.9,23.09,WNW,293,0.0,0.0,78,0.30,,,0.05,39,Wunderground v.1.15,2013-10-07 18:30:00,
2013-10-07 14:40:00,63.8,59.2,23.10,WSW,252,0.0,0.0,85,0.07,,,0.06,70,Wunderground v.1.15,2013-10-07 18:40:00,
2013-10-07 14:50:00,62.3,58.4,23.10,NW,311,0.0,0.0,87,0.00,,,0.06,86,Wunderground v.1.15,2013-10-07 18:50:00,
2013-10-07 15:10:00,61.1,57.2,23.10,West,279,0.0,0.0,87,0.00,,,0.06,44,Wunderground v.1.15,2013-10-07 19:10:00,
2013-10-07 15:19:00,60.4,57.1,23.10,West,275,0.0,0.0,89,0.00,,,0.06,46,Wunderground v.1.15,2013-10-07 19:19:00,
2013-10-07 15:40:00,60.0,57.1,23.11,WSW,254,0.0,0.0,90,0.30,,,0.09,33,Wunderground v.1.15,2013-10-07 19:40:00,
2013-10-07 15:50:00,59.5,56.9,23.10,WNW,295,0.0,0.0,91,0.27,,,0.14,26,Wunderground v.1.15,2013-10-07 19:50:00,
2013-10-07 16:10:00,58.9,56.6,23.11,SW,219,0.0,0.0,92,0.10,,,0.17,23,Wunderground v.1.15,2013-10-07 20:10:00,
2013-10-07 16:20:00,58.3,55.7,23.11,SSW,213,0.0,0.0,91,0.20,,,0.20,18,Wunderground v.1.15,2013-10-07 20:20:00,
2013-10-07 16:40:00,57.4,55.1,23.11,West,262,0.0,0.0,92,0.23,,,0.25,18,Wunderground v.1.15,2013-10-07 20:40:00,
2013-10-07 16:49:00,57.1,54.8,23.11,West,271,0.0,0.0,92,0.12,,,0.27,18,Wunderground v.1.15,2013-10-07 20:49:00,
2013-10-07 17:10:00,56.9,54.6,23.11,WSW,251,0.0,0.0,92,0.13,,,0.31,5,Wunderground v.1.15,2013-10-07 21:10:00,
2013-10-07 17:20:00,56.8,54.5,23.11,West,267,0.0,0.0,92,0.15,,,0.33,14,Wunderground v.1.15,2013-10-07 21:20:00,
2013-10-07 17:40:00,56.9,54.6,23.12,WSW,238,0.0,0.0,92,0.05,,,0.34,0,Wunderground v.1.15,2013-10-07 21:40:00,
2013-10-07 17:50:00,56.8,54.5,23.11,WSW,242,0.0,0.0,92,0.08,,,0.35,7,Wunderground v.1.15,2013-10-07 21:50:00,
2013-10-07 18:10:00,56.4,54.1,23.12,SW,231,0.0,0.0,92,0.36,,,0.41,0,Wunderground v.1.15,2013-10-07 22:10:00,
2013-10-07 18:20:00,56.4,54.1,23.12,WSW,242,0.0,0.0,92,0.08,,,0.42,5,Wunderground v.1.15,2013-10-07 22:20:00,
2013-10-07 18:40:00,55.9,52.7,23.12,WSW,244,0.0,0.0,89,0.04,,,0.43,0,Wunderground v.1.15,2013-10-07 22:40:00,
2013-10-07 18:50:00,55.6,51.2,23.13,WSW,238,0.0,0.0,85,0.00,,,0.43,0,Wunderground v.1.15,2013-10-07 22:50:00,
2013-10-07 19:00:00,55.3,49.9,23.13,West,265,0.0,0.0,82,0.00,,,0.43,0,Wunderground v.1.15,2013-10-07 23:00:00,
2013-10-07 19:09:00,55.0,49.3,23.13,SW,215,0.0,0.0,81,0.00,,,0.43,0,Wunderground v.1.15,2013-10-07 23:09:00,
2013-10-07 19:20:00,54.7,49.0,23.13,West,275,0.0,0.0,81,0.00,,,0.43,0,Wunderground v.1.15,2013-10-07 23:20:00,
2013-10-07 19:30:00,54.6,49.2,23.13,WNW,286,0.0,0.0,82,0.00,,,0.43,0,Wunderground v.1.15,2013-10-07 23:30:00,
2013-10-07 19:39:00,54.6,49.5,23.14,SSW,193,0.0,0.0,83,0.00,,,0.43,0,Wunderground v.1.15,2013-10-07 23:39:00,
2013-10-07 19:50:00,54.4,49.3,23.14,West,271,0.0,0.0,83,0.00,,,0.43,0,Wunderground v.1.15,2013-10-07 23:50:00,
2013-10-07 20:10:00,54.6,48.9,23.14,WSW,242,0.0,0.0,81,0.00,,,0.43,0,Wunderground v.1.15,2013-10-08 00:10:00,
2013-10-07 20:20:00,54.6,48.9,23.14,WSW,246,0.0,0.0,81,0.00,,,0.43,0,Wunderground v.1.15,2013-10-08 00:20:00,
2013-10-07 20:30:00,54.7,48.6,23.14,WSW,243,0.0,0.0,80,0.00,,,0.43,0,Wunderground v.1.15,2013-10-08 00:30:00,
2013-10-07 20:40:00,54.7,48.3,23.14,South,190,0.0,0.0,79,0.00,,,0.43,0,Wunderground v.1.15,2013-10-08 00:40:00,
2013-10-07 20:50:00,54.7,48.0,23.14,West,279,0.0,0.0,78,0.00,,,0.43,0,Wunderground v.1.15,2013-10-08 00:50:00,
2013-10-07 21:10:00,54.9,47.5,23.14,WSW,238,0.0,0.0,76,0.00,,,0.43,0,Wunderground v.1.15,2013-10-08 01:10:00,
2013-10-07 21:20:00,55.0,47.2,23.14,West,260,0.0,0.0,75,0.00,,,0.43,0,Wunderground v.1.15,2013-10-08 01:20:00,
2013-10-07 21:30:00,54.9,47.1,23.14,WSW,255,0.0,0.0,75,0.00,,,0.43,0,Wunderground v.1.15,2013-10-08 01:30:00,
2013-10-07 21:40:00,54.7,46.9,23.14,South,179,0.0,0.0,75,0.00,,,0.43,0,Wunderground v.1.15,2013-10-08 01:40:00,
2013-10-07 21:50:00,54.6,46.5,23.14,SW,220,0.0,0.0,74,0.00,,,0.43,0,Wunderground v.1.15,2013-10-08 01:50:00,
2013-10-07 22:10:00,54.9,46.0,23.14,WSW,257,0.0,0.0,72,0.00,,,0.43,0,Wunderground v.1.15,2013-10-08 02:10:00,
2013-10-07 22:20:00,55.0,45.8,23.15,West,273,0.0,0.0,71,0.00,,,0.43,0,Wunderground v.1.15,2013-10-08 02:20:00,
2013-10-07 22:40:00,54.9,45.3,23.15,NW,318,0.0,0.0,70,0.00,,,0.43,0,Wunderground v.1.15,2013-10-08 02:40:00,
2013-10-07 22:50:00,55.0,45.0,23.15,WNW,298,0.0,0.0,69,0.00,,,0.43,0,Wunderground v.1.15,2013-10-08 02:50:00,
2013-10-07 23:09:00,54.7,44.7,23.15,SW,229,0.0,0.0,69,0.00,,,0.43,0,Wunderground v.1.15,2013-10-08 03:09:00,
2013-10-07 23:20:00,54.7,44.3,23.15,WSW,246,0.0,0.0,68,0.00,,,0.43,0,Wunderground v.1.15,2013-10-08 03:20:00,
2013-10-07 23:30:00,54.6,44.6,23.15,WSW,254,0.0,0.0,69,0.00,,,0.43,0,Wunderground v.1.15,2013-10-08 03:30:00,
2013-10-07 23:40:00,54.4,44.4,23.15,NNW,347,0.0,0.0,69,0.00,,,0.43,0,Wunderground v.1.15,2013-10-08 03:40:00,
2013-10-07 23:50:00,54.3,44.3,23.15,NW,326,0.0,0.0,69,0.00,,,0.43,0,Wunderground v.1.15,2013-10-08 03:50:00,